createdAt,value
2019-02-21T00:03:59.230Z,47.8
2019-02-21T00:09:05.174Z,47.7
2019-02-21T00:14:07.005Z,47.7
2019-02-21T00:19:51.388Z,47.6
2019-02-21T00:24:53.187Z,47.6
2019-02-21T00:29:57.639Z,47.5
2019-02-21T00:35:00.478Z,47.5
2019-02-21T00:40:03.280Z,47.4
2019-02-21T00:45:05.090Z,47.4
2019-02-21T00:50:07.926Z,47.3
2019-02-21T00:55:09.718Z,47.2
2019-02-21T01:00:14.356Z,47.2
2019-02-21T01:05:23.431Z,47.1
2019-02-21T01:10:25.162Z,47.1
2019-02-21T01:15:27.542Z,47
2019-02-21T01:20:29.433Z,47
2019-02-21T01:25:35.505Z,46.9
2019-02-21T01:30:37.312Z,46.9
2019-02-21T01:35:39.137Z,46.8
2019-02-21T01:40:40.938Z,46.7
2019-02-21T01:50:52.627Z,46.6
2019-02-21T01:55:57.179Z,46.6
2019-02-21T02:01:07.843Z,46.5
2019-02-21T02:06:13.835Z,46.4
2019-02-21T02:11:15.555Z,46.4
2019-02-21T02:16:20.380Z,46.3
2019-02-21T02:21:23.176Z,46.2
2019-02-21T02:26:28.994Z,46.2
2019-02-21T02:31:34.724Z,46.2
2019-02-21T02:36:36.481Z,46.1
2019-02-21T02:41:41.180Z,46.1
2019-02-21T02:46:46.530Z,46
2019-02-21T03:49:19.302Z,45.2
2019-02-21T03:54:28.630Z,45.2
2019-02-21T03:59:32.994Z,45.2
2019-02-21T04:04:37.706Z,45.1
2019-02-21T04:09:43.909Z,45.1
2019-02-21T04:14:45.772Z,45
2019-02-21T04:20:10.630Z,44.9
2019-02-21T04:25:13.407Z,44.9
2019-02-21T04:30:15.130Z,44.8
2019-02-21T04:35:17.933Z,44.7
2019-02-21T04:40:20.255Z,44.7
2019-02-21T04:45:22.629Z,44.7
2019-02-21T04:50:27.169Z,44.6
2019-02-21T04:55:29.652Z,44.6
2019-02-21T05:00:31.351Z,44.5
2019-02-21T05:05:43.384Z,44.4
2019-02-21T05:11:30.897Z,44.4
2019-02-21T05:16:33.793Z,44.3
2019-02-21T05:26:44.729Z,44.2
2019-02-21T05:31:49.124Z,44.2
2019-02-21T05:36:53.725Z,44.1
2019-02-21T05:41:56.851Z,44.1
2019-02-21T05:47:02.408Z,44
2019-02-21T05:52:04.131Z,43.9
2019-02-21T05:57:05.817Z,43.9
2019-02-21T06:02:07.554Z,43.9
2019-02-21T06:07:09.901Z,43.8
2019-02-21T06:12:13.037Z,43.7
2019-02-21T06:17:57.039Z,43.7
2019-02-21T06:22:59.151Z,43.7
2019-02-21T06:28:00.817Z,43.6
2019-02-21T06:33:08.432Z,43.6
2019-02-21T06:38:10.196Z,43.5
2019-02-21T06:43:13.241Z,43.4
2019-02-21T06:48:14.979Z,43.4
2019-02-21T06:53:16.649Z,43.4
2019-02-21T06:58:19.226Z,43.3
2019-02-21T07:03:20.911Z,43.3
2019-02-21T07:08:25.071Z,43.2
2019-02-21T07:13:27.134Z,43.1
2019-02-21T07:18:29.378Z,43.1
2019-02-21T07:23:42.734Z,43.1
2019-02-21T07:28:44.758Z,43
2019-02-21T07:33:48.328Z,42.9
2019-02-21T07:39:08.711Z,42.9
2019-02-21T07:44:17.997Z,42.9
2019-02-21T07:49:19.673Z,42.8
2019-02-21T07:54:21.485Z,42.7
2019-02-21T07:59:23.567Z,42.7
2019-02-21T08:04:25.266Z,42.7
2019-02-21T08:09:28.039Z,42.6
2019-02-21T08:14:29.790Z,42.6
2019-02-21T08:19:31.640Z,42.5
2019-02-21T08:29:49.449Z,42.4
2019-02-21T08:34:52.770Z,42.4
2019-02-21T08:39:58.770Z,42.3
2019-02-21T08:45:00.411Z,42.3
2019-02-21T08:50:02.135Z,42.2
2019-02-21T08:55:03.732Z,42.2
2019-02-21T09:00:05.423Z,42.2
2019-02-21T09:05:09.402Z,42.1
2019-02-21T09:10:11.257Z,42.1
2019-02-21T09:15:12.928Z,42
2019-02-21T09:20:17.388Z,42
2019-02-21T09:25:20.003Z,41.9
2019-02-21T09:30:30.448Z,41.9
2019-02-21T09:35:32.061Z,41.9
2019-02-21T09:40:34.790Z,41.8
2019-02-21T09:45:42.180Z,41.7
2019-02-21T09:50:44.671Z,41.7
2019-02-21T09:55:46.307Z,41.6
2019-02-21T10:00:48.223Z,41.6
2019-02-21T10:05:50.029Z,41.6
2019-02-21T10:10:51.919Z,41.6
2019-02-21T10:15:57.277Z,41.5
2019-02-21T10:20:58.933Z,41.4
2019-02-21T10:26:00.706Z,41.4
2019-02-21T10:31:02.359Z,41.4
2019-02-21T10:36:06.780Z,41.3
2019-02-21T10:41:11.924Z,41.2
2019-02-21T10:46:15.415Z,41.2
2019-02-21T10:51:18.442Z,41.2
2019-02-21T10:56:29.985Z,41.1
2019-02-21T11:01:31.701Z,41.1
2019-02-21T11:06:34.478Z,41.1
2019-02-21T11:11:37.107Z,41
2019-02-21T11:16:38.677Z,41
2019-02-21T11:21:40.268Z,40.9
2019-02-21T11:26:41.905Z,40.9
2019-02-21T11:31:43.508Z,40.9
2019-02-21T11:36:45.106Z,40.8
2019-02-21T11:41:47.732Z,40.8
2019-02-21T11:46:49.936Z,40.8
2019-02-21T11:51:51.590Z,40.7
2019-02-21T11:56:53.267Z,40.7
2019-02-21T12:01:55.141Z,40.6
2019-02-21T12:06:59.469Z,40.6
2019-02-21T12:12:02.771Z,40.6
2019-02-21T12:17:10.823Z,40.5
2019-02-21T12:22:12.427Z,40.5
2019-02-21T12:27:14.941Z,40.4
2019-02-21T12:32:17.645Z,40.4
2019-02-21T12:37:25.210Z,40.4
2019-02-21T12:42:26.781Z,40.3
2019-02-21T12:47:53.495Z,40.2
2019-02-21T12:53:02.205Z,40.2
2019-02-21T12:58:09.809Z,40.2
2019-02-21T13:03:12.096Z,40.1
2019-02-21T13:08:16.740Z,40.1
2019-02-21T13:13:23.082Z,40.1
2019-02-21T13:18:25.000Z,40.1
2019-02-21T13:23:26.629Z,40
2019-02-21T13:28:28.310Z,40
2019-02-21T13:33:29.931Z,39.9
2019-02-21T13:38:31.612Z,39.9
2019-02-21T13:43:33.264Z,39.9
2019-02-21T13:48:38.261Z,39.8
2019-02-21T13:53:39.921Z,39.8
2019-02-21T13:58:41.700Z,39.7
2019-02-21T14:03:46.104Z,39.7
2019-02-21T14:08:47.754Z,39.7
2019-02-21T14:13:49.352Z,39.6
2019-02-21T14:18:50.997Z,39.6
2019-02-21T14:23:52.616Z,39.6
2019-02-21T14:28:57.165Z,39.6
2019-02-21T14:34:02.642Z,39.5
2019-02-21T14:39:05.842Z,39.5
2019-02-21T14:44:07.999Z,39.4
2019-02-21T14:49:15.553Z,39.4
2019-02-21T14:54:17.639Z,39.4
2019-02-21T14:59:19.997Z,39.3
2019-02-21T15:04:24.548Z,39.3
2019-02-21T15:09:26.134Z,39.2
2019-02-21T15:14:27.676Z,39.2
2019-02-21T15:19:29.301Z,39.2
2019-02-21T15:24:30.898Z,39.2
2019-02-21T15:29:32.491Z,39.1
2019-02-21T15:34:34.170Z,39.1
2019-02-21T15:39:36.777Z,39.1
2019-02-21T15:44:38.916Z,39
2019-02-21T15:49:41.541Z,39
2019-02-21T15:54:46.760Z,38.9
2019-02-21T15:59:49.452Z,38.9
2019-02-21T16:04:54.945Z,38.9
2019-02-21T16:09:56.531Z,38.9
2019-02-21T16:14:59.138Z,38.8
2019-02-21T16:20:06.088Z,38.8
2019-02-21T16:25:10.830Z,38.7
2019-02-21T16:30:12.647Z,38.7
2019-02-21T16:35:15.544Z,38.7
2019-02-21T16:40:18.197Z,38.7
2019-02-21T16:45:23.929Z,38.6
2019-02-21T16:50:35.707Z,38.6
2019-02-21T16:55:38.243Z,38.6
2019-02-21T17:00:53.820Z,38.5
2019-02-21T17:11:11.283Z,38.4
2019-02-21T17:16:21.303Z,38.4
2019-02-21T17:21:33.070Z,38.4
2019-02-21T17:26:42.623Z,38.3
2019-02-21T17:31:51.215Z,38.3
2019-02-21T17:37:02.989Z,39.6
2019-02-21T17:43:42.931Z,41
2019-02-21T17:48:51.490Z,42
2019-02-21T17:54:00.541Z,42.7
2019-02-21T17:59:12.270Z,43.4
2019-02-21T18:04:20.822Z,43.9
2019-02-21T18:09:33.068Z,44.2
2019-02-21T18:14:44.303Z,44.9
2019-02-21T18:19:52.966Z,45.3
2019-02-21T18:25:01.523Z,45.8
2019-02-21T18:30:11.219Z,46.1
2019-02-21T18:40:51.474Z,46.7
2019-02-21T18:46:03.804Z,46.9
2019-02-21T18:51:12.371Z,47.1
2019-02-21T18:56:20.935Z,47.2
2019-02-21T19:01:30.913Z,47.2
2019-02-21T19:06:52.177Z,47.3
2019-02-21T19:12:00.953Z,47.3
2019-02-21T19:17:09.537Z,47.2
2019-02-21T19:22:20.888Z,47.2
2019-02-21T19:27:36.814Z,46.7
2019-02-21T19:32:45.708Z,47.1
2019-02-21T19:38:09.419Z,46.8
2019-02-21T19:43:19.565Z,47.4
2019-02-21T19:48:30.814Z,47.7
2019-02-21T19:53:42.163Z,47.9
2019-02-21T19:58:51.347Z,48.2
2019-02-21T20:04:00.229Z,48.3
2019-02-21T20:09:08.836Z,48.4
2019-02-21T20:14:27.150Z,48.3
2019-02-21T20:19:36.299Z,48.3
2019-02-21T20:24:45.948Z,48.3
2019-02-21T20:29:58.470Z,48.2
2019-02-21T20:35:07.368Z,48
2019-02-21T20:40:19.410Z,47.7
2019-02-21T20:45:24.853Z,47.7
2019-02-21T20:50:26.702Z,47.6
2019-02-21T20:55:28.505Z,47.6
2019-02-21T21:00:30.372Z,47.6
2019-02-21T21:05:32.526Z,47.5
2019-02-21T21:10:34.319Z,47.4
2019-02-21T21:15:36.061Z,47.4
2019-02-21T21:20:37.898Z,47.4
2019-02-21T21:25:39.700Z,47.3
2019-02-21T21:30:41.430Z,47.2
2019-02-21T21:35:52.682Z,47.2
2019-02-21T21:40:54.492Z,47.1
2019-02-21T21:45:59.678Z,47.1
2019-02-21T21:51:01.480Z,47
2019-02-21T21:56:03.304Z,46.9
2019-02-21T22:01:05.098Z,46.9
2019-02-21T22:06:06.932Z,46.8
2019-02-21T22:16:18.910Z,46.7
2019-02-21T22:21:23.161Z,46.6
2019-02-21T22:26:24.943Z,46.6
2019-02-21T22:31:26.759Z,46.5
2019-02-21T22:36:31.216Z,46.4
2019-02-21T22:41:33.003Z,46.4
2019-02-21T22:46:35.052Z,46.3
2019-02-21T22:51:36.844Z,46.2
2019-02-21T22:56:42.507Z,46.2
2019-02-21T23:02:06.294Z,46.1
2019-02-21T23:07:10.107Z,46.1
2019-02-21T23:12:12.946Z,45.9
2019-02-21T23:17:16.363Z,45.9
2019-02-21T23:22:22.294Z,45.8
2019-02-21T23:27:33.300Z,45.8
2019-02-21T23:32:35.991Z,45.7
2019-02-21T23:38:20.205Z,45.6
2019-02-21T23:43:25.866Z,45.6
2019-02-21T23:53:40.047Z,45.4
2019-02-21T23:58:41.838Z,45.3
